Time;durP1;ratioP1;P1;durP2;ratioP2;P2;SDS_P1;SDS_P2;PMS_P1;PMS_P2;Temp;Humidity;BMP_temperature;BMP_pressure;BME280_temperature;BME280_humidity;BME280_pressure;Samples;Min_cycle;Max_cycle;Signal;HPM_P1;HPM_P2
2024/04/01 00:00:36;;;;;;;20.52;11.75;;;;;;;14.33;84.17;99383.22;5072879;28;20055;-47
2024/04/01 00:03:02;;;;;;;23.05;12.02;;;;;;;14.54;83.82;99387.06;5073424;28;20518;-47
2024/04/01 00:05:28;;;;;;;20.20;11.68;;;;;;;14.60;83.37;99387.75;5073074;28;20498;-45
2024/04/01 00:07:55;;;;;;;23.77;11.95;;;;;;;14.49;83.01;99389.81;5073880;28;20045;-45
2024/04/01 00:10:21;;;;;;;22.10;11.60;;;;;;;14.57;82.67;99371.25;5072605;28;20047;-51
2024/04/01 00:12:47;;;;;;;21.50;12.32;;;;;;;14.52;82.60;99365.25;5073364;28;20090;-46
2024/04/01 00:15:12;;;;;;;19.95;11.55;;;;;;;14.45;82.28;99363.72;5072224;28;20032;-48
2024/04/01 00:17:37;;;;;;;21.48;11.73;;;;;;;14.43;82.12;99376.84;5072895;28;20044;-46
2024/04/01 00:20:03;;;;;;;19.90;11.73;;;;;;;14.36;82.69;99384.88;5072793;28;20047;-46
2024/04/01 00:22:28;;;;;;;21.38;11.00;;;;;;;14.45;82.51;99382.94;5073109;28;20036;-50
2024/04/01 00:24:54;;;;;;;23.02;11.00;;;;;;;14.51;82.44;99377.53;5073413;28;20028;-47
2024/04/01 00:27:19;;;;;;;18.13;10.63;;;;;;;14.56;82.69;99380.88;5071117;28;20035;-47
2024/04/01 00:29:44;;;;;;;20.52;11.05;;;;;;;14.55;82.94;99394.03;5072915;28;20425;-48
2024/04/01 00:32:10;;;;;;;20.58;10.85;;;;;;;14.61;83.52;99381.63;5072382;28;20104;-46
2024/04/01 00:34:35;;;;;;;18.88;10.90;;;;;;;14.76;83.65;99379.50;5072983;28;20279;-45
2024/04/01 00:37:00;;;;;;;17.98;11.05;;;;;;;14.79;83.56;99377.63;5073171;28;20079;-47
2024/04/01 00:39:26;;;;;;;21.58;11.35;;;;;;;14.84;83.50;99374.88;5072722;28;20082;-46
2024/04/01 00:41:51;;;;;;;17.10;10.57;;;;;;;14.87;82.91;99378.28;5073648;28;20067;-48
2024/04/01 00:44:16;;;;;;;18.25;10.40;;;;;;;14.87;82.84;99373.03;5072024;28;20112;-46
2024/04/01 00:46:42;;;;;;;26.98;12.20;;;;;;;14.56;83.84;99377.41;5072598;28;20047;-49
2024/04/01 00:49:07;;;;;;;17.75;11.18;;;;;;;14.70;83.56;99362.13;5072508;28;20029;-50
2024/04/01 00:51:33;;;;;;;19.48;10.82;;;;;;;14.81;83.29;99356.59;5072679;28;20040;-45
2024/04/01 00:54:00;;;;;;;21.27;11.35;;;;;;;14.79;83.24;99348.78;5073222;28;20064;-50
2024/04/01 00:56:27;;;;;;;21.75;10.98;;;;;;;14.81;83.00;99343.50;5072343;28;20062;-46
2024/04/01 00:58:53;;;;;;;17.05;10.52;;;;;;;14.77;82.82;99350.56;5072716;28;20086;-48
2024/04/01 01:01:20;;;;;;;27.95;10.77;;;;;;;14.70;83.23;99348.19;5072385;28;20032;-48
2024/04/01 01:03:45;;;;;;;18.50;10.25;;;;;;;14.70;82.99;99353.44;5072482;28;20067;-47
2024/04/01 01:06:14;;;;;;;17.42;10.40;;;;;;;14.69;82.53;99351.69;5071851;28;20036;-47
2024/04/01 01:08:41;;;;;;;19.23;10.68;;;;;;;14.45;83.20;99359.34;5072362;28;20036;-46
2024/04/01 01:11:07;;;;;;;16.90;10.35;;;;;;;14.49;82.80;99355.72;5072048;28;20036;-49
2024/04/01 01:13:32;;;;;;;18.15;10.82;;;;;;;14.45;82.53;99366.34;5071939;28;20119;-47
2024/04/01 01:15:58;;;;;;;17.27;10.75;;;;;;;14.34;82.62;99363.94;5072246;28;20037;-46
2024/04/01 01:18:23;;;;;;;21.48;11.07;;;;;;;14.32;82.44;99372.75;5072054;28;20511;-49
2024/04/01 01:20:48;;;;;;;18.20;10.82;;;;;;;14.23;82.52;99374.69;5072410;28;20037;-46
2024/04/01 01:23:14;;;;;;;21.60;11.13;;;;;;;14.19;82.85;99370.44;5070461;28;20036;-48
2024/04/01 01:25:39;;;;;;;19.80;11.27;;;;;;;14.15;82.74;99384.50;5071781;28;20036;-49
2024/04/01 01:28:07;;;;;;;16.63;10.38;;;;;;;14.12;82.28;99383.72;5071354;28;20059;-45
2024/04/01 01:30:35;;;;;;;20.83;11.82;;;;;;;14.06;82.67;99378.66;5071753;28;20032;-47
2024/04/01 01:33:02;;;;;;;21.08;10.95;;;;;;;14.07;82.32;99370.75;5072125;28;20033;-49
2024/04/01 01:35:30;;;;;;;20.08;10.90;;;;;;;14.03;82.10;99365.59;5071169;28;20506;-46
2024/04/01 01:37:56;;;;;;;20.25;11.57;;;;;;;13.99;82.33;99380.56;5070058;28;20032;-46
2024/04/01 01:40:22;;;;;;;21.00;11.25;;;;;;;14.04;82.18;99383.91;5070988;28;20048;-48
2024/04/01 01:42:48;;;;;;;22.45;11.68;;;;;;;14.00;82.28;99369.19;5071378;28;20028;-47
2024/04/01 01:45:14;;;;;;;20.38;11.70;;;;;;;13.98;82.09;99365.72;5071030;28;20040;-46
2024/04/01 01:47:39;;;;;;;20.52;11.70;;;;;;;13.93;82.08;99364.13;5070936;28;20087;-48
2024/04/01 01:50:06;;;;;;;20.90;11.05;;;;;;;13.89;81.77;99355.47;5070401;28;20124;-47
2024/04/01 01:52:33;;;;;;;21.30;11.90;;;;;;;13.81;82.15;99376.63;5070917;28;20042;-45
2024/04/01 01:54:58;;;;;;;21.08;11.80;;;;;;;13.77;83.00;99374.13;5071002;28;20032;-50
2024/04/01 01:57:24;;;;;;;23.10;12.48;;;;;;;13.77;82.92;99374.97;5070867;28;20040;-46
2024/04/01 01:59:50;;;;;;;17.83;11.00;;;;;;;13.80;82.41;99382.75;5071498;28;20032;-47
2024/04/01 02:02:16;;;;;;;22.77;12.23;;;;;;;13.70;82.71;99386.47;5071093;28;20086;-46
2024/04/01 02:04:42;;;;;;;23.48;11.68;;;;;;;13.77;82.62;99377.59;5071346;28;20028;-46
2024/04/01 02:07:07;;;;;;;20.92;11.40;;;;;;;13.77;82.21;99368.88;5070956;28;20120;-46
2024/04/01 02:09:33;;;;;;;20.55;11.73;;;;;;;13.74;82.08;99375.03;5070966;28;20502;-48
2024/04/01 02:11:59;;;;;;;20.92;12.02;;;;;;;13.70;82.31;99386.47;5070968;28;20044;-48
2024/04/01 02:14:25;;;;;;;17.77;10.80;;;;;;;13.76;82.14;99373.25;5070339;28;20032;-46
2024/04/01 02:16:50;;;;;;;21.98;12.90;;;;;;;13.72;82.42;99375.97;5070829;28;20032;-46
2024/04/01 02:19:16;;;;;;;20.88;12.57;;;;;;;13.69;82.55;99378.66;5070417;28;20046;-46
2024/04/01 02:21:44;;;;;;;19.23;11.52;;;;;;;13.69;82.99;99378.66;5070359;28;20036;-50
2024/04/01 02:24:10;;;;;;;19.88;11.32;;;;;;;13.74;82.37;99375.03;5070048;28;20036;-49
2024/04/01 02:26:36;;;;;;;19.77;11.77;;;;;;;13.69;82.36;99373.41;5070471;28;20040;-47
2024/04/01 02:29:01;;;;;;;20.20;12.00;;;;;;;13.67;82.27;99376.06;5070303;28;20107;-52
2024/04/01 02:31:27;;;;;;;20.80;11.40;;;;;;;13.65;82.11;99377.88;5070415;28;20036;-47
2024/04/01 02:33:52;;;;;;;17.65;11.68;;;;;;;13.63;82.17;99371.81;5070526;28;20475;-45
2024/04/01 02:36:17;;;;;;;19.23;11.32;;;;;;;13.63;82.28;99376.19;5069897;28;20040;-48
2024/04/01 02:38:49;;;;;;;20.17;11.43;;;;;;;13.64;82.03;99377.91;5071024;28;20028;-47
2024/04/01 02:41:14;;;;;;;22.58;11.45;;;;;;;13.59;81.95;99380.63;5070560;28;20040;-48
2024/04/01 02:43:40;;;;;;;18.40;10.68;;;;;;;13.56;81.93;99383.31;5071070;28;20483;-46
2024/04/01 02:46:05;;;;;;;20.83;10.95;;;;;;;13.56;81.99;99377.19;5070438;28;20037;-44
2024/04/01 02:48:30;;;;;;;21.17;11.27;;;;;;;13.57;82.31;99374.56;5070366;28;20041;-49
2024/04/01 02:50:56;;;;;;;20.42;11.80;;;;;;;13.61;82.50;99383.19;5074104;28;20040;-49
2024/04/01 02:53:21;;;;;;;16.35;10.98;;;;;;;13.68;82.57;99390.03;5073814;28;20097;-48
2024/04/01 02:55:47;;;;;;;16.92;11.48;;;;;;;13.74;82.98;99390.75;5074155;28;20033;-48
2024/04/01 02:58:12;;;;;;;19.75;11.23;;;;;;;13.83;83.12;99389.69;5072997;28;20056;-46
2024/04/01 03:00:37;;;;;;;18.83;11.30;;;;;;;13.89;83.46;99383.44;5074169;28;20047;-46
2024/04/01 03:03:03;;;;;;;19.80;11.82;;;;;;;13.96;83.18;99371.91;5073797;28;20048;-50
2024/04/01 03:05:28;;;;;;;19.67;12.05;;;;;;;13.94;83.03;99374.56;5074505;28;20056;-46
2024/04/01 03:07:54;;;;;;;19.70;11.20;;;;;;;13.97;82.80;99379.72;5075584;28;20089;-47
2024/04/01 03:10:19;;;;;;;18.20;10.98;;;;;;;13.90;82.45;99380.78;5074420;28;20044;-47
2024/04/01 03:12:45;;;;;;;16.50;11.00;;;;;;;13.85;82.12;99380.00;5074943;28;20044;-46
2024/04/01 03:15:16;;;;;;;22.08;11.70;;;;;;;13.79;82.04;99375.78;5074300;28;20115;-49
2024/04/01 03:17:42;;;;;;;18.60;11.30;;;;;;;13.74;81.98;99376.78;5074146;28;20040;-46
2024/04/01 03:20:10;;;;;;;16.30;10.90;;;;;;;13.68;81.83;99379.53;5073265;28;20025;-47
2024/04/01 03:22:35;;;;;;;24.67;12.02;;;;;;;13.60;82.34;99384.13;5073653;28;20060;-47
2024/04/01 03:25:01;;;;;;;20.85;11.45;;;;;;;13.66;82.23;99383.97;5073661;28;20040;-49
2024/04/01 03:27:26;;;;;;;20.10;12.25;;;;;;;13.66;82.50;99382.19;5073776;28;20032;-49
2024/04/01 03:29:51;;;;;;;20.85;12.40;;;;;;;13.70;82.92;99383.88;5073780;28;20060;-45
2024/04/01 03:32:17;;;;;;;17.92;11.50;;;;;;;13.81;82.70;99381.00;5073278;28;20514;-47
2024/04/01 03:34:46;;;;;;;20.23;12.07;;;;;;;13.81;82.71;99384.47;5073383;28;20114;-46
2024/04/01 03:37:11;;;;;;;19.08;11.75;;;;;;;13.82;82.56;99380.97;5072946;28;20045;-45
2024/04/01 03:39:37;;;;;;;21.98;11.85;;;;;;;13.81;82.44;99379.22;5073051;28;20039;-46
2024/04/01 03:42:02;;;;;;;18.85;11.40;;;;;;;13.83;82.55;99381.81;5072809;28;20029;-47
2024/04/01 03:44:28;;;;;;;23.00;11.90;;;;;;;13.82;82.72;99375.72;5073148;28;20375;-47
2024/04/01 03:46:53;;;;;;;20.30;11.25;;;;;;;13.86;82.75;99368.63;5072714;28;20040;-46
2024/04/01 03:49:18;;;;;;;17.45;11.40;;;;;;;13.86;82.78;99363.41;5072591;28;20032;-45
2024/04/01 03:51:43;;;;;;;18.55;11.15;;;;;;;13.90;82.68;99365.06;5072936;28;20119;-48
2024/04/01 03:54:09;;;;;;;18.90;11.00;;;;;;;13.92;82.63;99372.88;5072637;28;20139;-48
2024/04/01 03:56:35;;;;;;;16.85;11.45;;;;;;;13.93;82.32;99374.59;5074198;28;20032;-46
2024/04/01 03:59:00;;;;;;;16.45;9.93;;;;;;;13.97;82.30;99365.75;5074412;28;20056;-45
2024/04/01 04:01:28;;;;;;;16.77;10.70;;;;;;;13.98;82.60;99365.72;5073094;28;20040;-47
2024/04/01 04:03:54;;;;;;;16.55;10.60;;;;;;;13.88;83.00;99359.00;5073709;28;20047;-47
2024/04/01 04:06:19;;;;;;;16.73;9.63;;;;;;;13.99;82.89;99351.72;5072448;28;20029;-50
2024/04/01 04:08:47;;;;;;;16.50;9.95;;;;;;;13.96;82.44;99362.31;5072804;28;20076;-46
2024/04/01 04:11:13;;;;;;;19.30;10.52;;;;;;;13.91;82.40;99358.91;5072146;28;20036;-47
2024/04/01 04:13:38;;;;;;;16.45;10.23;;;;;;;13.83;82.64;99358.25;5072593;28;20379;-49
2024/04/01 04:16:04;;;;;;;19.67;10.05;;;;;;;13.86;82.30;99349.44;5072510;28;20513;-46
2024/04/01 04:18:29;;;;;;;15.32;9.65;;;;;;;13.79;82.34;99352.19;5072403;28;20479;-45
2024/04/01 04:20:55;;;;;;;18.05;10.25;;;;;;;13.75;82.41;99353.19;5072182;28;20033;-46
2024/04/01 04:23:24;;;;;;;17.10;10.02;;;;;;;13.75;82.47;99352.31;5072056;28;20040;-48
2024/04/01 04:25:50;;;;;;;16.05;9.63;;;;;;;13.77;82.42;99347.91;5073302;28;20082;-47
2024/04/01 04:28:15;;;;;;;16.58;9.88;;;;;;;13.75;82.40;99352.31;5072688;28;20064;-46
2024/04/01 04:30:40;;;;;;;16.52;9.80;;;;;;;13.75;82.11;99355.81;5073012;28;20037;-49
2024/04/01 04:33:06;;;;;;;15.02;9.02;;;;;;;13.74;81.93;99353.22;5072436;28;20077;-45
2024/04/01 04:35:31;;;;;;;14.32;9.57;;;;;;;13.72;81.97;99365.50;5072895;28;20029;-46
2024/04/01 04:37:57;;;;;;;16.80;10.15;;;;;;;13.63;82.03;99363.94;5073079;28;20475;-47
2024/04/01 04:40:24;;;;;;;16.20;9.82;;;;;;;13.63;82.39;99368.31;5072062;28;20523;-45
2024/04/01 04:42:50;;;;;;;18.23;10.30;;;;;;;13.67;82.17;99378.69;5072184;28;20043;-45
2024/04/01 04:45:16;;;;;;;16.95;9.63;;;;;;;13.67;82.08;99378.69;5071187;28;20040;-45
2024/04/01 04:47:42;;;;;;;18.38;9.70;;;;;;;13.66;82.28;99382.19;5071720;28;20398;-45
2024/04/01 04:50:07;;;;;;;16.35;10.05;;;;;;;13.68;82.12;99390.88;5071038;28;20033;-48
2024/04/01 04:52:33;;;;;;;15.95;10.30;;;;;;;13.65;81.80;99388.34;5071614;28;20040;-48
2024/04/01 04:54:58;;;;;;;16.95;9.65;;;;;;;13.67;82.10;99396.16;5071785;28;20044;-46
2024/04/01 04:57:23;;;;;;;17.55;10.18;;;;;;;13.66;82.09;99403.16;5070987;28;20044;-46
2024/04/01 04:59:49;;;;;;;16.90;10.48;;;;;;;13.61;82.03;99405.00;5071201;28;20441;-46
2024/04/01 05:02:14;;;;;;;17.20;10.35;;;;;;;13.64;81.78;99399.72;5069546;28;20043;-49
2024/04/01 05:04:40;;;;;;;17.13;9.82;;;;;;;13.63;81.64;99408.47;5071253;28;20474;-45
2024/04/01 05:07:06;;;;;;;17.00;10.30;;;;;;;13.57;81.80;99407.72;5070551;28;20515;-48
2024/04/01 05:09:32;;;;;;;17.02;10.63;;;;;;;13.61;81.63;99412.00;5071358;28;20055;-47
2024/04/01 05:11:57;;;;;;;20.25;10.80;;;;;;;13.59;81.58;99412.06;5070676;28;20032;-45
2024/04/01 05:14:23;;;;;;;19.90;10.50;;;;;;;13.55;81.77;99410.38;5070799;28;20029;-49
2024/04/01 05:16:52;;;;;;;17.02;10.95;;;;;;;13.57;81.59;99405.13;5072575;28;20033;-49
2024/04/01 05:19:21;;;;;;;18.25;10.35;;;;;;;13.59;81.81;99411.19;5072161;28;20049;-45
2024/04/01 05:21:47;;;;;;;14.88;9.95;;;;;;;13.51;81.34;99410.50;5071045;28;20111;-45
2024/04/01 05:24:12;;;;;;;19.02;10.68;;;;;;;13.49;82.00;99412.25;5068474;28;20032;-46
2024/04/01 05:26:37;;;;;;;17.33;11.45;;;;;;;13.53;81.58;99420.03;5070810;28;20086;-45
2024/04/01 05:29:03;;;;;;;18.23;11.32;;;;;;;13.53;81.72;99422.66;5071066;28;20123;-48
2024/04/01 05:31:28;;;;;;;19.52;11.20;;;;;;;13.49;81.87;99417.50;5071802;28;20044;-45
2024/04/01 05:33:53;;;;;;;23.17;12.52;;;;;;;13.46;81.88;99422.81;5072294;28;20495;-47
2024/04/01 05:36:19;;;;;;;24.80;13.00;;;;;;;13.33;82.80;99435.31;5072208;28;20064;-44
2024/04/01 05:38:45;;;;;;;24.80;13.43;;;;;;;13.30;83.79;99433.59;5073237;28;20048;-46
2024/04/01 05:41:10;;;;;;;22.13;12.80;;;;;;;13.32;83.86;99441.44;5073505;28;20065;-45
2024/04/01 05:43:35;;;;;;;24.73;13.80;;;;;;;13.42;83.32;99437.72;5072021;28;20033;-46
2024/04/01 05:46:01;;;;;;;24.48;13.55;;;;;;;13.30;83.87;99445.81;5071069;28;20414;-46
2024/04/01 05:48:26;;;;;;;23.88;14.35;;;;;;;13.14;84.73;99455.75;5070359;28;20445;-46
2024/04/01 05:50:52;;;;;;;27.15;14.18;;;;;;;13.32;84.19;99441.44;5069216;28;20384;-46
2024/04/01 05:53:18;;;;;;;22.98;14.48;;;;;;;13.25;84.53;99445.06;5071039;28;20067;-45
2024/04/01 05:55:43;;;;;;;24.60;14.77;;;;;;;13.06;84.79;99436.66;5071970;28;20032;-45
2024/04/01 05:58:09;;;;;;;22.73;14.43;;;;;;;13.36;84.31;99437.84;5070244;28;20060;-46
2024/04/01 06:00:35;;;;;;;24.92;15.02;;;;;;;13.32;83.87;99444.03;5068887;28;20123;-49
2024/04/01 06:03:01;;;;;;;25.80;15.13;;;;;;;13.47;83.39;99450.72;5070225;28;20128;-48
2024/04/01 06:05:27;;;;;;;24.13;14.55;;;;;;;13.60;83.13;99455.66;5069403;28;20075;-45
2024/04/01 06:07:56;;;;;;;28.92;14.57;;;;;;;13.26;84.28;99446.78;5071090;28;20032;-50
2024/04/01 06:10:21;;;;;;;26.92;14.10;;;;;;;13.56;83.37;99456.63;5069538;28;20044;-45
2024/04/01 06:12:47;;;;;;;24.13;14.73;;;;;;;13.66;82.83;99452.91;5069667;28;20033;-47
2024/04/01 06:15:12;;;;;;;23.42;14.77;;;;;;;13.68;82.48;99458.97;5069492;28;20043;-46
2024/04/01 06:17:39;;;;;;;22.98;14.07;;;;;;;13.54;83.11;99457.56;5069751;28;20037;-47
2024/04/01 06:20:05;;;;;;;25.20;15.23;;;;;;;13.71;82.49;99451.06;5069282;28;20032;-46
2024/04/01 06:22:30;;;;;;;23.77;14.05;;;;;;;13.53;83.29;99461.06;5069915;28;20055;-47
2024/04/01 06:24:56;;;;;;;22.02;13.98;;;;;;;13.72;82.77;99454.56;5069585;28;20119;-45
2024/04/01 06:27:21;;;;;;;23.63;14.23;;;;;;;13.63;82.39;99460.84;5069335;28;20040;-45
2024/04/01 06:29:46;;;;;;;23.88;13.80;;;;;;;13.84;82.71;99458.66;5069842;28;20036;-45
2024/04/01 06:32:11;;;;;;;20.88;13.55;;;;;;;13.94;82.41;99465.41;5069206;28;20032;-45
2024/04/01 06:34:37;;;;;;;22.05;13.90;;;;;;;13.97;82.67;99465.31;5069372;28;20290;-44
2024/04/01 06:37:02;;;;;;;20.90;13.98;;;;;;;13.89;82.58;99472.50;5069002;28;20383;-47
2024/04/01 06:39:27;;;;;;;21.02;13.63;;;;;;;14.07;82.74;99478.19;5069601;28;20032;-44
2024/04/01 06:41:54;;;;;;;23.83;14.00;;;;;;;14.17;82.26;99486.69;5069770;28;20094;-45
2024/04/01 06:44:20;;;;;;;21.65;13.88;;;;;;;14.21;82.29;99483.09;5069284;28;20259;-45
2024/04/01 06:46:45;;;;;;;21.95;13.98;;;;;;;14.09;82.29;99486.00;5069965;28;20040;-46
2024/04/01 06:49:11;;;;;;;23.08;13.80;;;;;;;13.79;82.30;99485.78;5069031;28;20685;-46
2024/04/01 06:51:36;;;;;;;20.25;13.38;;;;;;;13.80;81.80;99481.41;5069724;28;20067;-47
2024/04/01 06:54:02;;;;;;;22.77;13.07;;;;;;;13.71;82.11;99485.13;5069406;28;20032;-46
2024/04/01 06:56:28;;;;;;;21.48;13.45;;;;;;;14.02;81.94;99489.69;5069292;28;20495;-46
2024/04/01 06:58:53;;;;;;;19.90;12.45;;;;;;;13.93;81.70;99487.25;5068533;28;20046;-46
2024/04/01 07:01:18;;;;;;;19.95;13.38;;;;;;;13.82;82.03;99496.22;5069842;28;20036;-44
2024/04/01 07:03:44;;;;;;;19.52;12.32;;;;;;;13.81;81.87;99494.50;5069952;28;20040;-46
2024/04/01 07:06:09;;;;;;;18.33;11.63;;;;;;;14.29;81.07;99503.88;5069676;28;20043;-48
2024/04/01 07:08:35;;;;;;;17.52;11.90;;;;;;;14.30;80.40;99508.25;5069590;28;20127;-50
2024/04/01 07:11:00;;;;;;;19.88;12.60;;;;;;;14.35;79.70;99516.84;5069609;28;20036;-45
2024/04/01 07:13:25;;;;;;;17.80;11.25;;;;;;;14.28;79.88;99510.88;5068935;28;20040;-44
2024/04/01 07:15:51;;;;;;;17.83;11.55;;;;;;;14.26;79.59;99509.22;5069276;28;20028;-47
2024/04/01 07:18:16;;;;;;;21.50;11.73;;;;;;;14.09;80.12;99513.06;5069221;28;20064;-46
2024/04/01 07:20:41;;;;;;;16.60;11.27;;;;;;;14.51;79.81;99520.91;5069715;28;20090;-49
2024/04/01 07:23:07;;;;;;;16.52;11.43;;;;;;;14.01;79.58;99507.16;5068890;28;20033;-49
2024/04/01 07:25:32;;;;;;;18.98;11.20;;;;;;;14.18;79.11;99512.88;5069053;28;20041;-47
2024/04/01 07:27:57;;;;;;;15.30;10.40;;;;;;;13.95;79.20;99509.06;5069350;28;20082;-45
2024/04/01 07:30:24;;;;;;;18.50;11.07;;;;;;;14.17;78.89;99502.41;5068509;28;20029;-46
2024/04/01 07:32:50;;;;;;;15.43;10.38;;;;;;;14.02;79.66;99508.88;5069086;28;20044;-48
2024/04/01 07:35:15;;;;;;;14.85;10.80;;;;;;;14.32;78.21;99509.94;5068664;28;20044;-47
2024/04/01 07:37:43;;;;;;;15.70;9.95;;;;;;;14.04;78.94;99508.84;5072838;28;20076;-45
2024/04/01 07:40:09;;;;;;;14.45;9.88;;;;;;;14.10;78.46;99511.31;5072310;28;20025;-47
2024/04/01 07:42:34;;;;;;;15.15;9.88;;;;;;;14.53;78.34;99527.81;5072738;28;20039;-45
2024/04/01 07:45:00;;;;;;;13.90;9.85;;;;;;;14.65;77.75;99525.78;5072480;28;20551;-45
2024/04/01 07:47:25;;;;;;;15.05;9.88;;;;;;;14.88;76.94;99521.69;5072733;28;20090;-47
2024/04/01 07:49:50;;;;;;;14.50;9.73;;;;;;;14.36;77.58;99529.94;5073417;28;20582;-46
2024/04/01 07:52:16;;;;;;;17.35;8.98;;;;;;;14.72;76.51;99533.47;5073471;28;20104;-47
2024/04/01 07:54:41;;;;;;;14.45;9.02;;;;;;;14.40;77.52;99534.22;5074088;28;20033;-46
2024/04/01 07:57:07;;;;;;;14.10;9.25;;;;;;;15.01;76.12;99544.09;5072584;28;20032;-46
2024/04/01 07:59:34;;;;;;;12.68;9.10;;;;;;;14.71;76.54;99550.09;5074153;28;20043;-47
2024/04/01 08:02:00;;;;;;;13.63;8.68;;;;;;;14.89;75.44;99554.88;5073841;28;20123;-44
2024/04/01 08:04:27;;;;;;;12.65;8.80;;;;;;;14.53;76.02;99561.03;5073361;28;20352;-45
2024/04/01 08:06:53;;;;;;;14.68;8.45;;;;;;;14.89;75.55;99569.78;5072428;28;20036;-47
2024/04/01 08:09:18;;;;;;;12.70;8.20;;;;;;;15.01;74.08;99566.84;5072124;28;20042;-47
2024/04/01 08:11:46;;;;;;;11.75;7.90;;;;;;;15.00;74.79;99576.47;5073070;28;20086;-46
2024/04/01 08:14:11;;;;;;;11.88;8.20;;;;;;;15.09;75.00;99574.53;5071553;28;20108;-44
2024/04/01 08:16:37;;;;;;;11.50;7.78;;;;;;;14.82;75.61;99574.31;5072089;28;20044;-45
2024/04/01 08:19:02;;;;;;;11.93;7.47;;;;;;;14.94;74.78;99565.31;5071814;28;20032;-46
2024/04/01 08:21:28;;;;;;;10.75;7.70;;;;;;;14.70;75.66;99565.91;5071915;28;20097;-46
2024/04/01 08:23:53;;;;;;;10.32;6.97;;;;;;;14.01;77.31;99562.19;5072163;28;20037;-46
2024/04/01 08:26:18;;;;;;;12.68;6.90;;;;;;;14.50;75.63;99571.63;5071638;28;20032;-45
2024/04/01 08:28:44;;;;;;;13.45;7.43;;;;;;;15.13;74.20;99579.66;5071730;28;20162;-45
2024/04/01 08:31:09;;;;;;;10.05;7.10;;;;;;;15.29;73.32;99582.75;5071404;28;20032;-45
2024/04/01 08:33:34;;;;;;;12.68;7.50;;;;;;;15.24;72.85;99590.75;5071813;28;20032;-47
2024/04/01 08:36:00;;;;;;;10.88;6.97;;;;;;;15.38;73.09;99580.75;5071625;28;20089;-46
2024/04/01 08:38:25;;;;;;;10.07;7.13;;;;;;;15.39;72.76;99589.47;5071330;28;20043;-46
2024/04/01 08:40:57;;;;;;;8.93;6.43;;;;;;;15.10;73.17;99592.00;5071918;28;20115;-48
2024/04/01 08:44:11;;;;;;;10.38;6.65;;;;;;;15.31;73.28;99589.69;5071531;28;20048;-47
2024/04/01 08:46:46;;;;;;;10.52;6.53;;;;;;;15.38;72.92;99593.00;5069485;28;20036;-45
2024/04/01 08:49:13;;;;;;;10.90;6.25;;;;;;;14.49;74.18;99601.34;5071461;28;20070;-46
2024/04/01 08:51:40;;;;;;;9.68;6.10;;;;;;;15.23;73.76;99598.69;5071984;28;20410;-47
2024/04/01 08:54:11;;;;;;;11.20;6.38;;;;;;;14.66;74.62;99611.44;5071579;28;20040;-48
2024/04/01 08:56:41;;;;;;;11.52;6.10;;;;;;;15.40;73.39;99602.59;5071966;28;20037;-46
2024/04/01 08:59:09;;;;;;;12.05;6.63;;;;;;;14.58;75.42;99614.25;5071667;28;20042;-45
2024/04/01 09:01:35;;;;;;;10.50;6.70;;;;;;;14.82;74.24;99612.84;5072163;28;20043;-46
2024/04/01 09:04:01;;;;;;;10.68;6.38;;;;;;;14.82;75.29;99610.22;5071745;28;20029;-46
2024/04/01 09:06:28;;;;;;;10.35;6.13;;;;;;;15.37;74.12;99613.16;5071433;28;20946;-45
2024/04/01 09:08:55;;;;;;;11.25;6.75;;;;;;;15.41;73.23;99617.44;5070375;28;20036;-46
2024/04/01 09:11:25;;;;;;;13.20;6.70;;;;;;;14.96;74.28;99615.97;5071447;28;20040;-45
2024/04/01 09:13:51;;;;;;;13.85;6.55;;;;;;;15.09;73.65;99619.16;5071502;28;20102;-47
2024/04/01 09:16:25;;;;;;;11.52;6.75;;;;;;;15.77;72.59;99623.50;5070630;28;20490;-46
2024/04/01 09:18:51;;;;;;;14.75;7.60;;;;;;;15.36;72.48;99627.22;5071979;28;20032;-48
2024/04/01 09:21:19;;;;;;;12.52;6.70;;;;;;;15.63;70.69;99636.13;5072337;28;20024;-49
2024/04/01 09:23:45;;;;;;;12.25;6.50;;;;;;;15.44;71.75;99629.63;5071763;28;20040;-46
2024/04/01 09:26:10;;;;;;;11.35;6.10;;;;;;;15.81;70.81;99629.53;5071579;28;20045;-46
2024/04/01 09:28:35;;;;;;;11.07;5.93;;;;;;;15.52;71.11;99637.28;5070897;28;20064;-45
2024/04/01 09:31:01;;;;;;;8.77;5.13;;;;;;;15.23;71.87;99643.31;5070853;28;20045;-49
2024/04/01 09:33:27;;;;;;;10.32;4.80;;;;;;;15.35;71.19;99640.38;5070184;28;20041;-46
2024/04/01 09:35:53;;;;;;;11.10;4.25;;;;;;;14.68;73.00;99639.38;5071102;28;20037;-46
2024/04/01 09:38:18;;;;;;;11.20;4.35;;;;;;;14.38;73.88;99642.69;5072063;28;20044;-46
2024/04/01 09:40:48;;;;;;;11.57;4.32;;;;;;;15.09;72.97;99646.25;5072615;28;20131;-46
2024/04/01 09:43:20;;;;;;;9.05;4.72;;;;;;;15.11;72.47;99651.50;5071009;28;20460;-46
2024/04/01 09:45:46;;;;;;;11.07;4.28;;;;;;;15.29;72.19;99659.78;5071131;28;20510;-47
2024/04/01 09:48:13;;;;;;;8.80;3.88;;;;;;;15.53;71.14;99662.69;5070696;28;20064;-46
2024/04/01 09:50:41;;;;;;;7.45;3.53;;;;;;;15.79;69.79;99668.13;5070803;28;20036;-47
2024/04/01 09:53:06;;;;;;;8.63;3.40;;;;;;;15.49;69.85;99675.00;5070368;28;20047;-44
2024/04/01 09:55:41;;;;;;;8.18;3.50;;;;;;;15.69;70.77;99674.53;5070686;28;20036;-47
2024/04/01 09:58:06;;;;;;;;;;;;;;;15.45;70.01;99668.13;5071208;28;20517;-46
2024/04/01 10:00:51;;;;;;;9.10;3.03;;;;;;;15.22;70.25;99671.31;5071231;28;20013;-46
2024/04/01 10:03:38;;;;;;;9.57;3.00;;;;;;;14.95;72.39;99670.22;5069031;28;20337;-47
2024/04/01 10:06:53;;;;;;;9.05;3.10;;;;;;;15.32;71.68;99661.44;5070380;28;20064;-45
2024/04/01 10:09:45;;;;;;;10.70;3.05;;;;;;;15.58;69.96;99656.41;5070367;28;20040;-45
2024/04/01 10:12:46;;;;;;;10.27;2.80;;;;;;;15.18;70.60;99656.56;5069866;28;20056;-46
2024/04/01 10:15:29;;;;;;;9.93;2.92;;;;;;;14.83;71.44;99667.00;5070018;28;20120;-47
2024/04/01 10:18:16;;;;;;;11.90;2.80;;;;;;;14.88;71.85;99655.50;5071214;28;20599;-48
2024/04/01 10:20:59;;;;;;;10.93;2.92;;;;;;;15.16;71.22;99660.09;5071088;28;20033;-45
2024/04/01 10:24:11;;;;;;;11.27;2.92;;;;;;;15.14;69.58;99673.25;5070219;28;20109;-46
2024/04/01 10:26:40;;;;;;;12.93;3.13;;;;;;;14.93;71.77;99673.78;5060315;28;20078;-45
2024/04/01 10:29:37;;;;;;;9.60;3.10;;;;;;;14.90;72.49;99669.47;5069981;28;20045;-48
2024/04/01 10:32:35;;;;;;;13.15;3.28;;;;;;;15.53;69.31;99675.84;5069911;28;20123;-48
2024/04/01 10:35:25;;;;;;;11.77;3.70;;;;;;;15.47;69.68;99681.22;5070514;28;20028;-47
2024/04/01 10:38:28;;;;;;;8.15;3.45;;;;;;;15.22;70.25;99673.09;5070481;28;20123;-48
2024/04/01 10:41:21;;;;;;;12.02;3.60;;;;;;;15.01;70.40;99677.94;5070518;28;20086;-47
2024/04/01 10:44:04;;;;;;;7.70;3.47;;;;;;;15.30;69.42;99677.25;5070714;28;20075;-45
2024/04/01 10:47:15;;;;;;;9.93;3.53;;;;;;;15.68;68.93;99683.31;5062051;28;20521;-47
2024/04/01 10:49:54;;;;;;;8.82;3.70;;;;;;;15.34;70.05;99673.66;5070218;28;20123;-46
2024/04/01 10:52:35;;;;;;;9.32;3.40;;;;;;;15.45;69.72;99686.50;5069847;28;20036;-46
2024/04/01 10:55:00;;;;;;;10.60;3.50;;;;;;;15.54;68.55;99696.81;5069861;28;20037;-47
2024/04/01 10:57:48;;;;;;;8.32;3.45;;;;;;;15.86;67.78;99700.38;5069930;28;20038;-48
2024/04/01 11:00:34;;;;;;;10.35;3.58;;;;;;;15.03;69.82;99706.78;5069400;28;20075;-47
2024/04/01 11:03:17;;;;;;;9.50;3.17;;;;;;;14.77;70.49;99703.88;5069827;28;20036;-46
2024/04/01 11:06:01;;;;;;;7.97;3.17;;;;;;;15.27;69.37;99702.72;5069465;28;20040;-43
2024/04/01 11:09:05;;;;;;;12.48;3.50;;;;;;;15.40;68.46;99710.25;5049815;28;20029;-45
2024/04/01 11:11:51;;;;;;;12.52;3.40;;;;;;;15.25;70.25;99715.88;5029093;28;20075;-47
2024/04/01 11:14:18;;;;;;;7.82;3.00;;;;;;;15.35;69.21;99719.16;5072532;28;20098;-47
2024/04/01 11:16:51;;;;;;;10.82;2.90;;;;;;;15.77;68.16;99717.25;5074672;28;20037;-46
2024/04/01 11:19:44;;;;;;;7.10;2.58;;;;;;;15.40;67.22;99723.38;5074803;28;20067;-48
2024/04/01 11:22:15;;;;;;;8.32;2.70;;;;;;;15.74;66.27;99727.81;5073361;28;20152;-44
2024/04/01 11:24:41;;;;;;;5.88;1.63;;;;;;;15.61;64.69;99732.53;5073480;28;20033;-45
2024/04/01 11:27:25;;;;;;;5.40;1.30;;;;;;;15.73;63.15;99739.25;5074177;28;20193;-51